createdAt,value
2022-09-13T00:00:07.809Z,100729.25
2022-09-13T00:02:36.064Z,100729.25
2022-09-13T00:05:04.288Z,100723.13
2022-09-13T00:07:32.193Z,100707.25
2022-09-13T00:10:00.195Z,100724.03
2022-09-13T00:12:28.056Z,100719.66
2022-09-13T00:14:55.867Z,100683.31
2022-09-13T00:17:25.639Z,100723.16
2022-09-13T00:19:53.468Z,100703.72
2022-09-13T00:22:21.287Z,100717.00
2022-09-13T00:24:49.302Z,100694.88
2022-09-13T00:27:18.046Z,100723.16
2022-09-13T00:29:46.136Z,100709.09
2022-09-13T00:32:14.509Z,100710.88
2022-09-13T00:34:43.713Z,100708.25
2022-09-13T00:37:11.569Z,100697.75
2022-09-13T00:39:39.633Z,100684.56
2022-09-13T00:42:10.149Z,100679.25
2022-09-13T00:44:55.303Z,100688.09
2022-09-13T00:47:29.002Z,100678.44
2022-09-13T00:50:04.026Z,100669.69
2022-09-13T00:52:35.062Z,100675.81
2022-09-13T00:55:06.293Z,100663.47
2022-09-13T00:57:36.895Z,100661.69
2022-09-13T01:00:13.060Z,100674.06
2022-09-13T01:02:46.166Z,100665.25
2022-09-13T01:05:18.111Z,100646.72
2022-09-13T01:07:46.369Z,100655.56
2022-09-13T01:10:14.260Z,100638.81
2022-09-13T01:12:49.783Z,100643.31
2022-09-13T01:15:17.621Z,100635.41
2022-09-13T01:17:45.925Z,100585.06
2022-09-13T01:20:16.503Z,100617.78
2022-09-13T01:23:13.054Z,100565.72
2022-09-13T01:26:12.370Z,100604.72
2022-09-13T01:29:05.571Z,100599.47
2022-09-13T01:31:39.810Z,100603.88
2022-09-13T01:34:19.306Z,100592.41
2022-09-13T01:37:17.981Z,100597.75
2022-09-13T01:40:03.854Z,100588.97
2022-09-13T01:42:43.923Z,100588.97
2022-09-13T01:45:26.140Z,100575.78
2022-09-13T01:47:59.570Z,100574.94
2022-09-13T01:50:38.335Z,100580.22
2022-09-13T01:53:16.257Z,100573.22
2022-09-13T01:55:47.661Z,100537.06
2022-09-13T01:58:24.427Z,100538.03
2022-09-13T02:00:59.609Z,100539.88
2022-09-13T02:03:34.979Z,100477.25
2022-09-13T02:06:07.358Z,100539.06
2022-09-13T02:08:41.838Z,100517.97
2022-09-13T02:11:12.572Z,100516.25
2022-09-13T02:13:46.201Z,100518.91
2022-09-13T02:16:19.113Z,100513.66
2022-09-13T02:18:53.797Z,100514.56
2022-09-13T02:21:27.174Z,100514.56
2022-09-13T02:24:00.326Z,100486.38
2022-09-13T02:26:30.345Z,100487.25
2022-09-13T02:29:01.823Z,100496.16
2022-09-13T02:31:33.801Z,100495.28
2022-09-13T02:34:08.621Z,100488.25
2022-09-13T02:36:41.775Z,100487.38
2022-09-13T02:39:15.568Z,100484.75
2022-09-13T02:41:50.218Z,100476.84
2022-09-13T02:44:25.455Z,100468.94
2022-09-13T02:47:12.180Z,100464.53
2022-09-13T02:49:54.198Z,100447.81
2022-09-13T02:52:35.054Z,100461.00
2022-09-13T02:55:14.930Z,100435.50
2022-09-13T02:57:55.134Z,100446.09
2022-09-13T03:00:23.461Z,100374.66
2022-09-13T03:02:53.901Z,100432.03
2022-09-13T03:05:23.288Z,100426.75
2022-09-13T03:07:52.946Z,100402.06
2022-09-13T03:10:21.017Z,100417.97
2022-09-13T03:13:04.244Z,100421.50
2022-09-13T03:15:46.455Z,100405.66
2022-09-13T03:18:32.131Z,100406.53
2022-09-13T03:21:12.801Z,100407.50
2022-09-13T03:23:50.283Z,100396.06
2022-09-13T03:26:37.596Z,100383.75
2022-09-13T03:29:20.052Z,100376.66
2022-09-13T03:31:52.445Z,100375.81
2022-09-13T03:34:31.870Z,100376.72
2022-09-13T03:37:07.472Z,100367.91
2022-09-13T03:39:41.673Z,100370.56
2022-09-13T03:42:17.947Z,100358.25
2022-09-13T03:44:50.087Z,100355.63
2022-09-13T03:47:18.974Z,100317.72
2022-09-13T03:49:47.516Z,100335.41
2022-09-13T03:52:17.078Z,100327.47
2022-09-13T03:54:44.994Z,100339.81
2022-09-13T03:57:16.376Z,100331.91
2022-09-13T03:59:47.393Z,100328.41
2022-09-13T04:02:16.651Z,100297.59
2022-09-13T04:04:45.569Z,100316.13
2022-09-13T04:07:15.208Z,100312.59
2022-09-13T04:09:44.451Z,100309.97
2022-09-13T04:12:13.951Z,100311.75
2022-09-13T04:14:43.356Z,100298.56
2022-09-13T04:17:12.176Z,100289.75
2022-09-13T04:19:40.425Z,100292.41
2022-09-13T04:22:08.931Z,100284.50
2022-09-13T04:24:37.841Z,100285.38
2022-09-13T04:27:07.930Z,100288.91
2022-09-13T04:29:35.903Z,100278.34
2022-09-13T04:32:04.323Z,100259.84
2022-09-13T04:34:32.191Z,100273.94
2022-09-13T04:37:00.147Z,100243.16
2022-09-13T04:39:28.274Z,100260.75
2022-09-13T04:41:56.824Z,100267.81
2022-09-13T04:44:27.902Z,100269.56
2022-09-13T04:46:55.908Z,100221.16
2022-09-13T04:49:23.772Z,100260.78
2022-09-13T04:51:51.693Z,100260.78
2022-09-13T04:54:19.648Z,100259.88
2022-09-13T04:56:47.498Z,100252.84
2022-09-13T04:59:15.873Z,100247.56
2022-09-13T05:01:45.300Z,100249.31
2022-09-13T05:04:13.400Z,100242.28
2022-09-13T05:06:41.369Z,100118.22
2022-09-13T05:09:14.264Z,100131.41
2022-09-13T05:11:42.821Z,100224.69
2022-09-13T05:14:12.117Z,100242.28
2022-09-13T05:16:40.075Z,100223.78
2022-09-13T05:19:10.309Z,100211.47
2022-09-13T05:21:38.357Z,100215.84
2022-09-13T05:24:06.359Z,100214.97
2022-09-13T05:26:34.478Z,100221.13
2022-09-13T05:29:02.752Z,100212.31
2022-09-13T05:31:32.972Z,100196.47
2022-09-13T05:34:03.476Z,100210.56
2022-09-13T05:36:33.528Z,100198.25
2022-09-13T05:41:50.362Z,100185.91
2022-09-13T05:44:18.179Z,100194.72
2022-09-13T05:46:48.378Z,100186.78
2022-09-13T05:49:16.562Z,100185.91
2022-09-13T05:51:45.785Z,100175.31
2022-09-13T05:54:14.002Z,100175.31
2022-09-13T05:56:42.174Z,100167.41
2022-09-13T05:59:13.642Z,100159.47
2022-09-13T06:01:42.119Z,100159.47
2022-09-13T06:04:12.655Z,100160.34
2022-09-13T06:06:40.524Z,100157.72
2022-09-13T06:09:13.323Z,100145.38
2022-09-13T06:11:41.489Z,100147.97
2022-09-13T06:14:09.286Z,100151.50
2022-09-13T06:16:38.134Z,100102.25
2022-09-13T06:19:06.209Z,100134.81
2022-09-13T06:21:34.099Z,100121.56
2022-09-13T06:24:02.324Z,100126.88
2022-09-13T06:26:31.888Z,100123.34
2022-09-13T06:28:59.881Z,100120.72
2022-09-13T06:31:29.490Z,100119.81
2022-09-13T06:33:59.011Z,100118.97
2022-09-13T06:36:27.536Z,100067.91
2022-09-13T06:38:55.899Z,100102.19
2022-09-13T06:41:27.323Z,100026.59
2022-09-13T06:43:58.814Z,100096.00
2022-09-13T06:46:28.407Z,100093.34
2022-09-13T06:48:57.955Z,100077.50
2022-09-13T06:51:26.876Z,100080.97
2022-09-13T06:53:56.783Z,100088.91
2022-09-13T06:56:26.166Z,100066.94
2022-09-13T06:59:01.514Z,100073.94
2022-09-13T07:01:31.803Z,99906.22
2022-09-13T07:04:02.312Z,100030.88
2022-09-13T07:06:34.194Z,100072.22
2022-09-13T07:09:04.013Z,100041.47
2022-09-13T07:11:35.106Z,100061.72
2022-09-13T07:14:06.822Z,100054.69
2022-09-13T07:16:38.617Z,100044.16
2022-09-13T07:19:08.100Z,100060.03
2022-09-13T07:21:36.625Z,100051.25
2022-09-13T07:24:05.673Z,100007.38
2022-09-13T07:26:33.826Z,100057.47
2022-09-13T07:29:05.811Z,100030.25
2022-09-13T07:31:36.749Z,100033.78
2022-09-13T07:34:06.304Z,100044.34
2022-09-13T07:36:36.871Z,100047.00
2022-09-13T07:39:05.914Z,99989.84
2022-09-13T07:41:34.642Z,100040.84
2022-09-13T07:44:05.215Z,100042.59
2022-09-13T07:46:34.279Z,100047.00
2022-09-13T07:49:02.852Z,99964.34
2022-09-13T07:51:32.755Z,100012.69
2022-09-13T07:54:02.675Z,100025.00
2022-09-13T07:56:32.194Z,100031.16
2022-09-13T07:59:02.535Z,100010.94
2022-09-13T08:01:35.841Z,100020.59
2022-09-13T08:04:05.853Z,100005.66
2022-09-13T08:06:35.637Z,100007.38
2022-09-13T08:09:04.447Z,99987.13
2022-09-13T08:11:35.612Z,99961.63
2022-09-13T08:14:04.359Z,100005.63
2022-09-13T08:16:34.994Z,100007.38
2022-09-13T08:19:05.815Z,100003.88
2022-09-13T08:21:35.980Z,99932.69
2022-09-13T08:24:04.714Z,99982.78
2022-09-13T08:26:35.428Z,99982.81
2022-09-13T08:29:05.796Z,99988.06
2022-09-13T08:31:36.202Z,99976.66
2022-09-13T08:34:03.997Z,99981.91
2022-09-13T08:36:32.070Z,99976.66
2022-09-13T08:39:01.778Z,99974.00
2022-09-13T08:41:54.412Z,99933.59
2022-09-13T08:44:27.771Z,99979.28
2022-09-13T08:47:05.458Z,99956.44
2022-09-13T08:49:37.295Z,99937.13
2022-09-13T08:52:21.929Z,99909.88
2022-09-13T08:54:54.850Z,99948.53
2022-09-13T08:57:32.366Z,99951.19
2022-09-13T09:00:05.784Z,99943.28
2022-09-13T09:02:52.606Z,99936.25
2022-09-13T09:05:22.865Z,99807.16
2022-09-13T09:07:54.605Z,99905.50
2022-09-13T09:10:26.419Z,99932.72
2022-09-13T09:12:58.633Z,99869.50
2022-09-13T09:15:31.613Z,99858.97
2022-09-13T09:18:04.879Z,99909.91
2022-09-13T09:20:38.221Z,99912.53
2022-09-13T09:23:16.778Z,99897.59
2022-09-13T09:25:49.416Z,99887.94
2022-09-13T09:28:19.597Z,99893.22
2022-09-13T09:31:01.966Z,99835.25
2022-09-13T09:33:59.423Z,99868.63
2022-09-13T09:36:35.947Z,99862.47
2022-09-13T09:39:05.905Z,99847.53
2022-09-13T09:41:35.551Z,99845.78
2022-09-13T09:44:18.051Z,99834.38
2022-09-13T09:46:51.045Z,99839.63
2022-09-13T09:49:45.309Z,99822.97
2022-09-13T09:52:17.426Z,99815.06
2022-09-13T09:54:46.689Z,99832.63
2022-09-13T09:57:14.839Z,99801.00
2022-09-13T09:59:42.754Z,99795.72
2022-09-13T10:02:18.915Z,99800.09
2022-09-13T10:04:57.982Z,99702.75
2022-09-13T10:07:30.471Z,99792.16
2022-09-13T10:10:03.995Z,99787.75
2022-09-13T10:12:35.116Z,99783.34
2022-09-13T10:15:20.588Z,99766.63
2022-09-13T10:18:21.139Z,99727.16
2022-09-13T10:21:06.283Z,99776.22
2022-09-13T10:23:35.380Z,99737.63
2022-09-13T10:26:10.179Z,99768.31
2022-09-13T10:28:46.198Z,99762.16
2022-09-13T10:31:17.468Z,99756.88
2022-09-13T10:33:54.120Z,99772.69
2022-09-13T10:36:50.546Z,99768.31
2022-09-13T10:39:20.320Z,99753.34
2022-09-13T10:41:52.917Z,99731.38
2022-09-13T10:44:29.185Z,99729.56
2022-09-13T10:47:00.387Z,99721.66
2022-09-13T10:49:39.772Z,99714.53
2022-09-13T10:52:33.064Z,99678.47
2022-09-13T10:55:31.546Z,99635.22
2022-09-13T10:58:18.787Z,99672.41
2022-09-13T11:01:02.467Z,99675.00
2022-09-13T11:03:49.766Z,99667.13
2022-09-13T11:06:27.970Z,99673.31
2022-09-13T11:09:08.582Z,99660.22
2022-09-13T11:11:44.523Z,99653.22
2022-09-13T11:14:23.937Z,99654.16
2022-09-13T11:17:03.954Z,99623.38
2022-09-13T11:19:58.888Z,99654.03
2022-09-13T11:22:48.034Z,99631.25
2022-09-13T11:25:33.154Z,99622.50
2022-09-13T11:28:11.620Z,99638.25
2022-09-13T11:30:53.228Z,99590.06
2022-09-13T11:33:34.257Z,99567.28
2022-09-13T11:36:24.666Z,99617.09
2022-09-13T11:39:04.005Z,99606.56
2022-09-13T11:41:44.464Z,99618.88
2022-09-13T11:44:43.377Z,99612.69
2022-09-13T11:47:22.025Z,99594.16
2022-09-13T11:50:04.773Z,99591.59
2022-09-13T11:52:45.006Z,99599.41
2022-09-13T11:55:18.905Z,99604.69
2022-09-13T11:57:51.336Z,99582.78
2022-09-13T12:00:24.306Z,99554.00
2022-09-13T12:03:00.573Z,99571.25
2022-09-13T12:05:33.852Z,99580.19
2022-09-13T12:08:07.861Z,99575.94
2022-09-13T12:10:41.602Z,99573.41
2022-09-13T12:13:18.557Z,99573.50
2022-09-13T12:15:49.496Z,99575.34
2022-09-13T12:18:22.673Z,99569.22
2022-09-13T12:20:53.413Z,99572.84
2022-09-13T12:23:26.664Z,99555.28
2022-09-13T12:26:00.300Z,99560.59
2022-09-13T12:28:35.606Z,99563.25
2022-09-13T12:31:10.888Z,99558.91
2022-09-13T12:33:42.779Z,99561.59
2022-09-13T12:36:39.943Z,99524.75
2022-09-13T12:39:33.943Z,99543.16
2022-09-13T12:42:35.068Z,99530.91
2022-09-13T12:45:22.664Z,99543.22
2022-09-13T12:48:15.421Z,99531.81
2022-09-13T12:50:51.282Z,99513.38
2022-09-13T12:53:40.840Z,99502.84
2022-09-13T12:56:35.342Z,99516.03
2022-09-13T12:59:24.363Z,99501.97
2022-09-13T13:01:54.452Z,99426.84
2022-09-13T13:04:25.330Z,99481.00
2022-09-13T13:06:56.750Z,99461.69
2022-09-13T13:09:32.395Z,99444.22
2022-09-13T13:12:02.828Z,99466.03
2022-09-13T13:14:46.201Z,99426.72
2022-09-13T13:17:41.530Z,99444.09
2022-09-13T13:20:48.327Z,99449.38
2022-09-13T13:23:19.860Z,99438.84
2022-09-13T13:26:32.678Z,99434.50
2022-09-13T13:29:15.525Z,99432.78
2022-09-13T13:32:07.827Z,99364.63
2022-09-13T13:34:42.356Z,99422.25
2022-09-13T13:37:39.019Z,99435.44
2022-09-13T13:40:29.232Z,99424.94
2022-09-13T13:43:31.747Z,99424.97
2022-09-13T13:46:15.830Z,99396.94
2022-09-13T13:48:44.238Z,99357.50
2022-09-13T13:51:31.040Z,99402.03
2022-09-13T13:54:03.120Z,99396.69
2022-09-13T13:56:35.175Z,99391.34
2022-09-13T13:59:13.574Z,99305.72
2022-09-13T14:01:47.315Z,99393.00
2022-09-13T14:04:42.221Z,99386.78
2022-09-13T14:07:24.753Z,99371.06
2022-09-13T14:09:58.625Z,99378.00
2022-09-13T14:12:35.114Z,99378.81
2022-09-13T14:15:23.942Z,99320.75
2022-09-13T14:18:12.408Z,99370.84
2022-09-13T14:20:59.244Z,99362.34
2022-09-13T14:23:28.481Z,99326.72
2022-09-13T14:25:58.473Z,99350.06
2022-09-13T14:28:26.665Z,99359.78
2022-09-13T14:30:57.885Z,99338.63
2022-09-13T14:33:32.210Z,99346.44
2022-09-13T14:36:03.868Z,99347.91
2022-09-13T14:38:35.791Z,99358.38
2022-09-13T14:41:15.694Z,99362.91
2022-09-13T14:43:45.057Z,99322.00
2022-09-13T14:46:17.825Z,99342.38
2022-09-13T14:48:51.720Z,99298.00
2022-09-13T14:51:27.121Z,99338.88
2022-09-13T14:54:01.188Z,99318.78
2022-09-13T14:56:37.958Z,99370.00
2022-09-13T14:59:13.168Z,99356.06
2022-09-13T15:01:41.033Z,99319.94
2022-09-13T15:04:09.375Z,99302.69
2022-09-13T15:06:39.499Z,99320.28
2022-09-13T15:09:28.453Z,99269.03
2022-09-13T15:12:01.427Z,99331.25
2022-09-13T15:14:31.295Z,99365.50
2022-09-13T15:17:09.472Z,99361.16
2022-09-13T15:19:39.977Z,99352.34
2022-09-13T15:22:23.443Z,99352.41
2022-09-13T15:24:54.839Z,99358.41
2022-09-13T15:27:27.550Z,99301.47
2022-09-13T15:29:57.529Z,99234.13
2022-09-13T15:32:31.943Z,99325.56
2022-09-13T15:35:01.859Z,99362.13
2022-09-13T15:37:36.063Z,99326.41
2022-09-13T15:40:17.366Z,99351.75
2022-09-13T15:42:50.289Z,99352.66
2022-09-13T15:45:19.182Z,99345.66
2022-09-13T15:47:48.982Z,99337.56
2022-09-13T15:50:27.068Z,99343.53
2022-09-13T15:52:56.054Z,99324.22
2022-09-13T15:55:27.092Z,99343.69
2022-09-13T15:57:55.351Z,99333.53
2022-09-13T16:00:24.708Z,99341.41
2022-09-13T16:02:52.897Z,99344.22
2022-09-13T16:05:21.226Z,99343.34
2022-09-13T16:07:49.053Z,99349.47
2022-09-13T16:10:20.028Z,99344.25
2022-09-13T16:12:49.414Z,99334.53
2022-09-13T16:15:17.358Z,99301.47
2022-09-13T16:17:45.736Z,99297.16
2022-09-13T16:20:15.512Z,99335.72
2022-09-13T16:22:43.436Z,99327.19
2022-09-13T16:25:14.125Z,99335.97
2022-09-13T16:27:43.003Z,99322.06
2022-09-13T16:30:14.960Z,99329.94
2022-09-13T16:32:43.262Z,99292.41
2022-09-13T16:35:12.469Z,99280.16
2022-09-13T16:37:41.274Z,99326.47
2022-09-13T16:40:10.631Z,99315.97
2022-09-13T16:42:39.229Z,99306.44
2022-09-13T16:45:08.246Z,99322.22
2022-09-13T16:47:37.521Z,99319.59
2022-09-13T16:50:06.451Z,99322.28
2022-09-13T16:52:36.333Z,99323.19
2022-09-13T16:55:04.969Z,99271.66
2022-09-13T16:57:33.074Z,99324.97
2022-09-13T17:00:01.266Z,99317.09
2022-09-13T17:02:29.574Z,99307.47
2022-09-13T17:04:58.982Z,99301.44
2022-09-13T17:07:27.498Z,99305.75
2022-09-13T17:09:55.416Z,99308.41
2022-09-13T17:12:23.273Z,99294.47
2022-09-13T17:14:51.799Z,99312.81
2022-09-13T17:17:20.383Z,99309.31
2022-09-13T17:19:48.363Z,99285.66
2022-09-13T17:22:17.950Z,99290.78
2022-09-13T17:24:46.214Z,99212.25
2022-09-13T17:27:14.080Z,99282.88
2022-09-13T17:29:42.074Z,99276.72
2022-09-13T17:32:10.064Z,99248.72
2022-09-13T17:34:37.990Z,99253.94
2022-09-13T17:37:06.937Z,99263.50
2022-09-13T17:39:36.221Z,99262.59
2022-09-13T17:42:04.131Z,99257.31
2022-09-13T17:44:32.076Z,99252.91
2022-09-13T17:46:59.996Z,99258.22
2022-09-13T17:49:27.808Z,99255.63
2022-09-13T17:51:55.939Z,99246.03
2022-09-13T17:54:24.023Z,99254.78
2022-09-13T17:56:53.246Z,99258.34
2022-09-13T17:59:22.693Z,99246.09
2022-09-13T18:01:52.212Z,99236.47
2022-09-13T18:04:22.330Z,99192.78
2022-09-13T18:06:52.217Z,99243.44
2022-09-13T18:09:20.374Z,99242.56
2022-09-13T18:11:48.482Z,99232.97
2022-09-13T18:14:19.594Z,99228.56
2022-09-13T18:16:49.365Z,99218.19
2022-09-13T18:19:17.590Z,99227.78
2022-09-13T18:21:45.572Z,99204.25
2022-09-13T18:24:13.588Z,99223.50
2022-09-13T18:26:41.506Z,99218.28
2022-09-13T18:29:12.629Z,99186.91
2022-09-13T18:31:43.919Z,99206.97
2022-09-13T18:34:14.151Z,99193.84
2022-09-13T18:36:42.306Z,99214.78
2022-09-13T18:39:15.963Z,99108.41
2022-09-13T18:41:45.294Z,99209.50
2022-09-13T18:44:13.827Z,99211.25
2022-09-13T18:46:43.774Z,99206.84
2022-09-13T18:49:12.172Z,99205.06
2022-09-13T18:51:41.783Z,99184.09
2022-09-13T18:54:13.321Z,99172.78
2022-09-13T18:56:41.405Z,99197.19
2022-09-13T18:59:11.100Z,99191.09
2022-09-13T19:01:40.894Z,99149.31
2022-09-13T19:04:14.066Z,99198.16
2022-09-13T19:06:43.762Z,99185.06
2022-09-13T19:09:12.392Z,99194.66
2022-09-13T19:11:47.273Z,99166.81
2022-09-13T19:14:18.456Z,99202.56
2022-09-13T19:16:46.391Z,99045.69
2022-09-13T19:19:15.644Z,99200.84
2022-09-13T19:21:44.174Z,99185.16
2022-09-13T19:24:18.235Z,99202.66
2022-09-13T19:26:48.376Z,99204.50
2022-09-13T19:29:18.112Z,99188.78
2022-09-13T19:31:49.640Z,99194.97
2022-09-13T19:34:20.733Z,99183.66
2022-09-13T19:36:50.683Z,99169.78
2022-09-13T19:39:18.976Z,99167.09
2022-09-13T19:41:46.831Z,99140.00
2022-09-13T19:44:15.981Z,99149.56
2022-09-13T19:46:44.246Z,99143.44
2022-09-13T19:49:15.116Z,99136.44
2022-09-13T19:51:51.855Z,99103.34
2022-09-13T19:54:20.632Z,99137.34
2022-09-13T19:56:48.642Z,99138.25
2022-09-13T19:59:19.814Z,99096.53
2022-09-13T20:01:48.924Z,99162.88
2022-09-13T20:04:18.778Z,99158.56
2022-09-13T20:06:50.247Z,99158.66
2022-09-13T20:09:19.623Z,99108.03
2022-09-13T20:11:48.715Z,99135.13
2022-09-13T20:14:18.765Z,99136.91
2022-09-13T20:16:47.901Z,99130.81
2022-09-13T20:22:10.041Z,99118.59
2022-09-13T20:24:38.274Z,99094.22
2022-09-13T20:27:06.496Z,99109.94
2022-09-13T20:29:34.613Z,99113.47
2022-09-13T20:32:02.877Z,99085.56
2022-09-13T20:34:31.819Z,99104.78
2022-09-13T20:36:59.881Z,99087.34
2022-09-13T20:39:29.277Z,99108.28
2022-09-13T20:41:57.221Z,99103.91
2022-09-13T20:44:25.116Z,99095.16
2022-09-13T20:46:53.017Z,99097.78
2022-09-13T20:49:21.913Z,99074.22
2022-09-13T20:51:50.122Z,99079.41
2022-09-13T20:54:18.257Z,99076.84
2022-09-13T20:56:47.436Z,99070.72
2022-09-13T20:59:15.327Z,99083.81
2022-09-13T21:01:43.455Z,99056.78
2022-09-13T21:04:11.463Z,99080.31
2022-09-13T21:07:01.223Z,99076.81
2022-09-13T21:09:28.987Z,99052.44
2022-09-13T21:11:58.466Z,99072.50
2022-09-13T21:14:26.447Z,99070.75
2022-09-13T21:16:54.397Z,99035.88
2022-09-13T21:19:23.118Z,99073.41
2022-09-13T21:21:51.507Z,99063.78
2022-09-13T21:24:19.758Z,99061.16
2022-09-13T21:26:49.694Z,99060.25
2022-09-13T21:29:18.975Z,99054.13
2022-09-13T21:31:47.103Z,99048.84
2022-09-13T21:34:16.763Z,99054.13
2022-09-13T21:36:46.128Z,99051.47
2022-09-13T21:39:14.849Z,99057.59
2022-09-13T21:41:43.479Z,99057.59
2022-09-13T21:44:11.890Z,99048.00
2022-09-13T21:46:42.150Z,99014.00
2022-09-13T21:49:11.817Z,99030.53
2022-09-13T21:51:41.831Z,99055.81
2022-09-13T21:54:14.262Z,99036.59
2022-09-13T21:56:44.104Z,99056.69
2022-09-13T21:59:14.658Z,99044.38
2022-09-13T22:01:47.001Z,98934.59
2022-09-13T22:04:17.688Z,99046.13
2022-09-13T22:06:46.922Z,99041.72
2022-09-13T22:09:15.916Z,99039.94
2022-09-13T22:11:46.058Z,99031.19
2022-09-13T22:14:15.786Z,99030.31
2022-09-13T22:16:46.971Z,99032.97
2022-09-13T22:19:17.160Z,99034.72
2022-09-13T22:21:46.914Z,99031.22
2022-09-13T22:24:17.023Z,99014.66
2022-09-13T22:26:45.989Z,99028.56
2022-09-13T22:29:15.246Z,99036.47
2022-09-13T22:31:46.157Z,99025.97
2022-09-13T22:34:15.965Z,99025.97
2022-09-13T22:36:46.410Z,99025.97
2022-09-13T22:39:17.260Z,98971.91
2022-09-13T22:41:46.111Z,99018.97
2022-09-13T22:44:14.170Z,99017.19
2022-09-13T22:46:45.828Z,99018.94
2022-09-13T22:49:15.531Z,99015.47
2022-09-13T22:51:45.089Z,98983.25
2022-09-13T22:54:13.681Z,99002.38
2022-09-13T22:56:42.088Z,98985.81
2022-09-13T22:59:13.932Z,99003.25
2022-09-13T23:01:42.528Z,99005.88
2022-09-13T23:04:12.662Z,98992.75
2022-09-13T23:06:41.217Z,98990.97
2022-09-13T23:09:10.238Z,98996.22
2022-09-13T23:11:40.030Z,99001.44
2022-09-13T23:14:10.924Z,98990.03
2022-09-13T23:16:41.122Z,98984.75
2022-09-13T23:19:09.509Z,98940.28
2022-09-13T23:21:39.129Z,98982.13
2022-09-13T23:24:09.165Z,98974.22
2022-09-13T23:26:37.093Z,98965.53
2022-09-13T23:29:06.011Z,98976.91
2022-09-13T23:31:36.497Z,98969.91
2022-09-13T23:34:06.127Z,98963.84
2022-09-13T23:36:37.625Z,98961.16
2022-09-13T23:39:09.068Z,98954.25
2022-09-13T23:41:37.072Z,98954.19
2022-09-13T23:44:05.929Z,98956.00
2022-09-13T23:46:33.938Z,98953.38
2022-09-13T23:49:01.920Z,98945.53
2022-09-13T23:51:29.984Z,98928.09
2022-09-13T23:53:58.836Z,98940.31
2022-09-13T23:56:30.238Z,98950.84
2022-09-13T23:58:59.026Z,98943.00
